Aviation Digital Data Service (ADDS)

Output produced by METARs form (2037 UTC 17 June 2019)
found at http://www.aviationweather.gov/metar/data/
 
METAR text: LTFJ 172020Z 04006KT 9999 FEW012 SCT060 24/22 Q1011 NOSIG RMK RWY24 05003KT 020V090
Conditions at: LTFJ (SABIHA GOKCEN , TR) observed 2020 UTC 17 June 2019
Temperature: 24.0°C (75°F)
Dewpoint: 22.0°C (72°F) [RH = 89%]
Pressure (altimeter): 29.85 inches Hg (1011.0 mb)
Winds: from the NE (40 degrees) at 7 MPH (6 knots; 3.1 m/s)
Visibility: 6 or more miles (10+ km)
Ceiling: at least 12,000 feet AGL
Clouds: few clouds at 1200 feet AGL
scattered clouds at 6000 feet AGL
Weather: no significant weather observed at this time

METAR text: LTFJ 171950Z 04007KT CAVOK 24/22 Q1011 NOSIG RMK RWY24 03003KT 350V070
Conditions at: LTFJ (SABIHA GOKCEN , TR) observed 1950 UTC 17 June 2019
Temperature: 24.0°C (75°F)
Dewpoint: 22.0°C (72°F) [RH = 89%]
Pressure (altimeter): 29.85 inches Hg (1011.0 mb)
Winds: from the NE (40 degrees) at 8 MPH (7 knots; 3.6 m/s)
Visibility: 6 or more miles (10+ km)
Ceiling: ceiling and visibility are OK
Clouds: unknown
Weather: no significant weather observed at this time

METAR text: LTFJ 171920Z 04008KT CAVOK 24/22 Q1011 NOSIG RMK RWY24 02006KT 360V070
Conditions at: LTFJ (SABIHA GOKCEN , TR) observed 1920 UTC 17 June 2019
Temperature: 24.0°C (75°F)
Dewpoint: 22.0°C (72°F) [RH = 89%]
Pressure (altimeter): 29.85 inches Hg (1011.0 mb)
Winds: from the NE (40 degrees) at 9 MPH (8 knots; 4.1 m/s)
Visibility: 6 or more miles (10+ km)
Ceiling: ceiling and visibility are OK
Clouds: unknown
Weather: no significant weather observed at this time

METAR text: LTFJ 171850Z 03010KT CAVOK 24/21 Q1011 NOSIG RMK RWY24 02008KT
Conditions at: LTFJ (SABIHA GOKCEN , TR) observed 1850 UTC 17 June 2019
Temperature: 24.0°C (75°F)
Dewpoint: 21.0°C (70°F) [RH = 83%]
Pressure (altimeter): 29.85 inches Hg (1011.0 mb)
Winds: from the NNE (30 degrees) at 12 MPH (10 knots; 5.1 m/s)
Visibility: 6 or more miles (10+ km)
Ceiling: ceiling and visibility are OK
Clouds: unknown
Weather: no significant weather observed at this time

METAR text: LTFJ 171820Z 03011KT CAVOK 24/21 Q1010 NOSIG RMK RWY24 02008KT
Conditions at: LTFJ (SABIHA GOKCEN , TR) observed 1820 UTC 17 June 2019
Temperature: 24.0°C (75°F)
Dewpoint: 21.0°C (70°F) [RH = 83%]
Pressure (altimeter): 29.82 inches Hg (1010.0 mb)
Winds: from the NNE (30 degrees) at 13 MPH (11 knots; 5.7 m/s)
Visibility: 6 or more miles (10+ km)
Ceiling: ceiling and visibility are OK
Clouds: unknown
Weather: no significant weather observed at this time

METAR text: LTFJ 171750Z 03013KT CAVOK 25/19 Q1010 NOSIG RMK RWY24 01010KT
Conditions at: LTFJ (SABIHA GOKCEN , TR) observed 1750 UTC 17 June 2019
Temperature: 25.0°C (77°F)
Dewpoint: 19.0°C (66°F) [RH = 69%]
Pressure (altimeter): 29.82 inches Hg (1010.0 mb)
Winds: from the NNE (30 degrees) at 15 MPH (13 knots; 6.7 m/s)
Visibility: 6 or more miles (10+ km)
Ceiling: ceiling and visibility are OK
Clouds: unknown
Weather: no significant weather observed at this time

METAR text: LTFJ 171720Z 03013KT CAVOK 25/18 Q1010 NOSIG RMK RWY24 02010KT
Conditions at: LTFJ (SABIHA GOKCEN , TR) observed 1720 UTC 17 June 2019
Temperature: 25.0°C (77°F)
Dewpoint: 18.0°C (64°F) [RH = 65%]
Pressure (altimeter): 29.82 inches Hg (1010.0 mb)
Winds: from the NNE (30 degrees) at 15 MPH (13 knots; 6.7 m/s)
Visibility: 6 or more miles (10+ km)
Ceiling: ceiling and visibility are OK
Clouds: unknown
Weather: no significant weather observed at this time

METAR text: LTFJ 171650Z 04015KT CAVOK 26/17 Q1010 NOSIG RMK RWY24 02012KT
Conditions at: LTFJ (SABIHA GOKCEN , TR) observed 1650 UTC 17 June 2019
Temperature: 26.0°C (79°F)
Dewpoint: 17.0°C (63°F) [RH = 58%]
Pressure (altimeter): 29.82 inches Hg (1010.0 mb)
Winds: from the NE (40 degrees) at 17 MPH (15 knots; 7.7 m/s)
Visibility: 6 or more miles (10+ km)
Ceiling: ceiling and visibility are OK
Clouds: unknown
Weather: no significant weather observed at this time

METAR text: LTFJ 171620Z 03016KT CAVOK 27/16 Q1010 NOSIG RMK RWY24 02012KT
Conditions at: LTFJ (SABIHA GOKCEN , TR) observed 1620 UTC 17 June 2019
Temperature: 27.0°C (81°F)
Dewpoint: 16.0°C (61°F) [RH = 51%]
Pressure (altimeter): 29.82 inches Hg (1010.0 mb)
Winds: from the NNE (30 degrees) at 18 MPH (16 knots; 8.2 m/s)
Visibility: 6 or more miles (10+ km)
Ceiling: ceiling and visibility are OK
Clouds: unknown
Weather: no significant weather observed at this time

METAR text: LTFJ 171550Z 03017KT 9999 FEW035 28/17 Q1009 NOSIG RMK RWY24 03013KT
Conditions at: LTFJ (SABIHA GOKCEN , TR) observed 1550 UTC 17 June 2019
Temperature: 28.0°C (82°F)
Dewpoint: 17.0°C (63°F) [RH = 51%]
Pressure (altimeter): 29.79 inches Hg (1009.0 mb)
Winds: from the NNE (30 degrees) at 20 MPH (17 knots; 8.7 m/s)
Visibility: 6 or more miles (10+ km)
Ceiling: at least 12,000 feet AGL
Clouds: few clouds at 3500 feet AGL
Weather: no significant weather observed at this time

METAR text: LTFJ 171520Z 03016KT 9999 FEW035 28/17 Q1009 NOSIG RMK RWY24 02013KT
Conditions at: LTFJ (SABIHA GOKCEN , TR) observed 1520 UTC 17 June 2019
Temperature: 28.0°C (82°F)
Dewpoint: 17.0°C (63°F) [RH = 51%]
Pressure (altimeter): 29.79 inches Hg (1009.0 mb)
Winds: from the NNE (30 degrees) at 18 MPH (16 knots; 8.2 m/s)
Visibility: 6 or more miles (10+ km)
Ceiling: at least 12,000 feet AGL
Clouds: few clouds at 3500 feet AGL
Weather: no significant weather observed at this time

METAR text: LTFJ 171450Z 03016KT 9999 SCT035 28/19 Q1009 NOSIG RMK RWY24 03013KT 350V050
Conditions at: LTFJ (SABIHA GOKCEN , TR) observed 1450 UTC 17 June 2019
Temperature: 28.0°C (82°F)
Dewpoint: 19.0°C (66°F) [RH = 58%]
Pressure (altimeter): 29.79 inches Hg (1009.0 mb)
Winds: from the NNE (30 degrees) at 18 MPH (16 knots; 8.2 m/s)
Visibility: 6 or more miles (10+ km)
Ceiling: at least 12,000 feet AGL
Clouds: scattered clouds at 3500 feet AGL
Weather: no significant weather observed at this time

METAR text: LTFJ 171420Z 03017KT 9999 SCT035 29/18 Q1009 NOSIG RMK RWY24 02014KT
Conditions at: LTFJ (SABIHA GOKCEN , TR) observed 1420 UTC 17 June 2019
Temperature: 29.0°C (84°F)
Dewpoint: 18.0°C (64°F) [RH = 52%]
Pressure (altimeter): 29.79 inches Hg (1009.0 mb)
Winds: from the NNE (30 degrees) at 20 MPH (17 knots; 8.7 m/s)
Visibility: 6 or more miles (10+ km)
Ceiling: at least 12,000 feet AGL
Clouds: scattered clouds at 3500 feet AGL
Weather: no significant weather observed at this time

METAR text: LTFJ 171350Z 03018KT 9999 SCT035 29/19 Q1009 NOSIG RMK RWY24 02015KT
Conditions at: LTFJ (SABIHA GOKCEN , TR) observed 1350 UTC 17 June 2019
Temperature: 29.0°C (84°F)
Dewpoint: 19.0°C (66°F) [RH = 55%]
Pressure (altimeter): 29.79 inches Hg (1009.0 mb)
Winds: from the NNE (30 degrees) at 21 MPH (18 knots; 9.3 m/s)
Visibility: 6 or more miles (10+ km)
Ceiling: at least 12,000 feet AGL
Clouds: scattered clouds at 3500 feet AGL
Weather: no significant weather observed at this time

METAR text: LTFJ 171320Z 03018KT 010V070 9999 SCT030 29/20 Q1009 NOSIG RMK RWY24 02016KT
Conditions at: LTFJ (SABIHA GOKCEN , TR) observed 1320 UTC 17 June 2019
Temperature: 29.0°C (84°F)
Dewpoint: 20.0°C (68°F) [RH = 58%]
Pressure (altimeter): 29.79 inches Hg (1009.0 mb)
Winds: from the NNE (30 degrees) at 21 MPH (18 knots; 9.3 m/s)
Visibility: 6 or more miles (10+ km)
Ceiling: at least 12,000 feet AGL
Clouds: scattered clouds at 3000 feet AGL
Weather: no significant weather observed at this time

METAR text: LTFJ 171250Z 03015KT 360V060 9999 SCT030 30/19 Q1009 NOSIG RMK RWY24 04013KT 020V080
Conditions at: LTFJ (SABIHA GOKCEN , TR) observed 1250 UTC 17 June 2019
Temperature: 30.0°C (86°F)
Dewpoint: 19.0°C (66°F) [RH = 52%]
Pressure (altimeter): 29.79 inches Hg (1009.0 mb)
Winds: from the NNE (30 degrees) at 17 MPH (15 knots; 7.7 m/s)
Visibility: 6 or more miles (10+ km)
Ceiling: at least 12,000 feet AGL
Clouds: scattered clouds at 3000 feet AGL
Weather: no significant weather observed at this time

METAR text: LTFJ 171220Z 04017KT 9999 SCT030 31/18 Q1009 NOSIG RMK RWY24 03014KT 360V080
Conditions at: LTFJ (SABIHA GOKCEN , TR) observed 1220 UTC 17 June 2019
Temperature: 31.0°C (88°F)
Dewpoint: 18.0°C (64°F) [RH = 46%]
Pressure (altimeter): 29.79 inches Hg (1009.0 mb)
Winds: from the NE (40 degrees) at 20 MPH (17 knots; 8.7 m/s)
Visibility: 6 or more miles (10+ km)
Ceiling: at least 12,000 feet AGL
Clouds: scattered clouds at 3000 feet AGL
Weather: no significant weather observed at this time

METAR text: LTFJ 171150Z 03014KT 9999 FEW024TCU SCT030 31/19 Q1009 NOSIG RMK RWY24 05011KT 020V080
Conditions at: LTFJ (SABIHA GOKCEN , TR) observed 1150 UTC 17 June 2019
Temperature: 31.0°C (88°F)
Dewpoint: 19.0°C (66°F) [RH = 49%]
Pressure (altimeter): 29.79 inches Hg (1009.0 mb)
Winds: from the NNE (30 degrees) at 16 MPH (14 knots; 7.2 m/s)
Visibility: 6 or more miles (10+ km)
Ceiling: at least 12,000 feet AGL
Clouds: few clouds at 2400 feet AGL
scattered clouds at 3000 feet AGL
Weather: no significant weather observed at this time

METAR text: LTFJ 171120Z 05012KT 350V090 9999 FEW024TCU SCT030 30/20 Q1009 NOSIG RMK RWY24 04008KT 340V100
Conditions at: LTFJ (SABIHA GOKCEN , TR) observed 1120 UTC 17 June 2019
Temperature: 30.0°C (86°F)
Dewpoint: 20.0°C (68°F) [RH = 55%]
Pressure (altimeter): 29.79 inches Hg (1009.0 mb)
Winds: from the NE (50 degrees) at 14 MPH (12 knots; 6.2 m/s)
Visibility: 6 or more miles (10+ km)
Ceiling: at least 12,000 feet AGL
Clouds: few clouds at 2400 feet AGL
scattered clouds at 3000 feet AGL
Weather: no significant weather observed at this time

METAR text: LTFJ 171050Z 07008KT 030V120 9999 FEW024TCU SCT032 30/20 Q1010 NOSIG RMK RWY24 05010KT 010V090
Conditions at: LTFJ (SABIHA GOKCEN , TR) observed 1050 UTC 17 June 2019
Temperature: 30.0°C (86°F)
Dewpoint: 20.0°C (68°F) [RH = 55%]
Pressure (altimeter): 29.82 inches Hg (1010.0 mb)
Winds: from the ENE (70 degrees) at 9 MPH (8 knots; 4.1 m/s)
Visibility: 6 or more miles (10+ km)
Ceiling: at least 12,000 feet AGL
Clouds: few clouds at 2400 feet AGL
scattered clouds at 3200 feet AGL
Weather: no significant weather observed at this time

METAR text: LTFJ 171020Z 27005KT 200V010 9999 FEW024TCU SCT030 28/21 Q1010 NOSIG RMK RWY24 03010KT 360V080
Conditions at: LTFJ (SABIHA GOKCEN , TR) observed 1020 UTC 17 June 2019
Temperature: 28.0°C (82°F)
Dewpoint: 21.0°C (70°F) [RH = 66%]
Pressure (altimeter): 29.82 inches Hg (1010.0 mb)
Winds: from the W (270 degrees) at 6 MPH (5 knots; 2.6 m/s)
Visibility: 6 or more miles (10+ km)
Ceiling: at least 12,000 feet AGL
Clouds: few clouds at 2400 feet AGL
scattered clouds at 3000 feet AGL
Weather: no significant weather observed at this time

METAR text: LTFJ 170950Z 23008KT 200V260 9999 FEW024TCU SCT033 28/21 Q1010 NOSIG RMK RWY24 VRB04KT
Conditions at: LTFJ (SABIHA GOKCEN , TR) observed 0950 UTC 17 June 2019
Temperature: 28.0°C (82°F)
Dewpoint: 21.0°C (70°F) [RH = 66%]
Pressure (altimeter): 29.82 inches Hg (1010.0 mb)
Winds: from the SW (230 degrees) at 9 MPH (8 knots; 4.1 m/s)
Visibility: 6 or more miles (10+ km)
Ceiling: at least 12,000 feet AGL
Clouds: few clouds at 2400 feet AGL
scattered clouds at 3300 feet AGL
Weather: no significant weather observed at this time

METAR text: LTFJ 170920Z 24007KT 200V270 9999 FEW024TCU SCT033 27/20 Q1010 NOSIG RMK RWY24 03007KT 360V070
Conditions at: LTFJ (SABIHA GOKCEN , TR) observed 0920 UTC 17 June 2019
Temperature: 27.0°C (81°F)
Dewpoint: 20.0°C (68°F) [RH = 66%]
Pressure (altimeter): 29.82 inches Hg (1010.0 mb)
Winds: from the WSW (240 degrees) at 8 MPH (7 knots; 3.6 m/s)
Visibility: 6 or more miles (10+ km)
Ceiling: at least 12,000 feet AGL
Clouds: few clouds at 2400 feet AGL
scattered clouds at 3300 feet AGL
Weather: no significant weather observed at this time

METAR text: LTFJ 170850Z 23005KT 150V270 9999 FEW024TCU SCT033 28/21 Q1010 NOSIG RMK RWY24 VRB06KT
Conditions at: LTFJ (SABIHA GOKCEN , TR) observed 0850 UTC 17 June 2019
Temperature: 28.0°C (82°F)
Dewpoint: 21.0°C (70°F) [RH = 66%]
Pressure (altimeter): 29.82 inches Hg (1010.0 mb)
Winds: from the SW (230 degrees) at 6 MPH (5 knots; 2.6 m/s)
Visibility: 6 or more miles (10+ km)
Ceiling: at least 12,000 feet AGL
Clouds: few clouds at 2400 feet AGL
scattered clouds at 3300 feet AGL
Weather: no significant weather observed at this time

METAR text: LTFJ 170820Z VRB04KT 9999 FEW014 BKN030 27/21 Q1010 NOSIG RMK RWY24 35004KT 300V070
Conditions at: LTFJ (SABIHA GOKCEN , TR) observed 0820 UTC 17 June 2019
Temperature: 27.0°C (81°F)
Dewpoint: 21.0°C (70°F) [RH = 70%]
Pressure (altimeter): 29.82 inches Hg (1010.0 mb)
Winds: variable direction winds at 5 MPH (4 knots; 2.1 m/s)
Visibility: 6 or more miles (10+ km)
Ceiling: 3000 feet AGL
Clouds: few clouds at 1400 feet AGL
broken clouds at 3000 feet AGL
Weather: no significant weather observed at this time

METAR text: LTFJ 170750Z 04007KT 360V060 9999 FEW013 BKN026 28/20 Q1010 NOSIG RMK RWY24 02006KT 330V070
Conditions at: LTFJ (SABIHA GOKCEN , TR) observed 0750 UTC 17 June 2019
Temperature: 28.0°C (82°F)
Dewpoint: 20.0°C (68°F) [RH = 62%]
Pressure (altimeter): 29.82 inches Hg (1010.0 mb)
Winds: from the NE (40 degrees) at 8 MPH (7 knots; 3.6 m/s)
Visibility: 6 or more miles (10+ km)
Ceiling: 2600 feet AGL
Clouds: few clouds at 1300 feet AGL
broken clouds at 2600 feet AGL
Weather: no significant weather observed at this time

METAR text: LTFJ 170720Z 06006KT 360V110 9999 SCT011 BKN026 27/21 Q1010 NOSIG RMK RWY24 03005KT 310V100
Conditions at: LTFJ (SABIHA GOKCEN , TR) observed 0720 UTC 17 June 2019
Temperature: 27.0°C (81°F)
Dewpoint: 21.0°C (70°F) [RH = 70%]
Pressure (altimeter): 29.82 inches Hg (1010.0 mb)
Winds: from the ENE (60 degrees) at 7 MPH (6 knots; 3.1 m/s)
Visibility: 6 or more miles (10+ km)
Ceiling: 2600 feet AGL
Clouds: scattered clouds at 1100 feet AGL
broken clouds at 2600 feet AGL
Weather: no significant weather observed at this time

METAR text: LTFJ 170650Z 05006KT 010V110 9999 SCT010 BKN026 26/21 Q1010 NOSIG RMK RWY24 03004KT 330V140
Conditions at: LTFJ (SABIHA GOKCEN , TR) observed 0650 UTC 17 June 2019
Temperature: 26.0°C (79°F)
Dewpoint: 21.0°C (70°F) [RH = 74%]
Pressure (altimeter): 29.82 inches Hg (1010.0 mb)
Winds: from the NE (50 degrees) at 7 MPH (6 knots; 3.1 m/s)
Visibility: 6 or more miles (10+ km)
Ceiling: 2600 feet AGL
Clouds: scattered clouds at 1000 feet AGL
broken clouds at 2600 feet AGL
Weather: no significant weather observed at this time

METAR text: LTFJ 170620Z 03007KT 360V070 9999 SCT008 BKN023 25/21 Q1010 NOSIG RMK RWY24 01006KT 340V080
Conditions at: LTFJ (SABIHA GOKCEN , TR) observed 0620 UTC 17 June 2019
Temperature: 25.0°C (77°F)
Dewpoint: 21.0°C (70°F) [RH = 79%]
Pressure (altimeter): 29.82 inches Hg (1010.0 mb)
Winds: from the NNE (30 degrees) at 8 MPH (7 knots; 3.6 m/s)
Visibility: 6 or more miles (10+ km)
Ceiling: 2300 feet AGL
Clouds: scattered clouds at 800 feet AGL
broken clouds at 2300 feet AGL
Weather: no significant weather observed at this time

METAR text: LTFJ 170550Z 03008KT 9999 SCT013 BKN030 25/21 Q1010 NOSIG RMK RWY24 04006KT 360V070
Conditions at: LTFJ (SABIHA GOKCEN , TR) observed 0550 UTC 17 June 2019
Temperature: 25.0°C (77°F)
Dewpoint: 21.0°C (70°F) [RH = 79%]
Pressure (altimeter): 29.82 inches Hg (1010.0 mb)
Winds: from the NNE (30 degrees) at 9 MPH (8 knots; 4.1 m/s)
Visibility: 6 or more miles (10+ km)
Ceiling: 3000 feet AGL
Clouds: scattered clouds at 1300 feet AGL
broken clouds at 3000 feet AGL
Weather: no significant weather observed at this time

METAR text: LTFJ 170520Z 04010KT 9999 SCT013 BKN030 24/22 Q1010 NOSIG RMK RWY24 01007KT
Conditions at: LTFJ (SABIHA GOKCEN , TR) observed 0520 UTC 17 June 2019
Temperature: 24.0°C (75°F)
Dewpoint: 22.0°C (72°F) [RH = 89%]
Pressure (altimeter): 29.82 inches Hg (1010.0 mb)
Winds: from the NE (40 degrees) at 12 MPH (10 knots; 5.1 m/s)
Visibility: 6 or more miles (10+ km)
Ceiling: 3000 feet AGL
Clouds: scattered clouds at 1300 feet AGL
broken clouds at 3000 feet AGL
Weather: no significant weather observed at this time

METAR text: LTFJ 170450Z 04010KT 9999 SCT009 BKN030 24/22 Q1010 RESHRA NOSIG RMK RWY24 03006KT
Conditions at: LTFJ (SABIHA GOKCEN , TR) observed 0450 UTC 17 June 2019
Temperature: 24.0°C (75°F)
Dewpoint: 22.0°C (72°F) [RH = 89%]
Pressure (altimeter): 29.82 inches Hg (1010.0 mb)
Winds: from the NE (40 degrees) at 12 MPH (10 knots; 5.1 m/s)
Visibility: 6 or more miles (10+ km)
Ceiling: 3000 feet AGL
Clouds: scattered clouds at 900 feet AGL
broken clouds at 3000 feet AGL
Weather: no significant weather observed at this time

METAR text: LTFJ 170420Z 05007KT 9999 -SHRA SCT009 BKN030 24/23 Q1010 NOSIG RMK RWY24 07004KT 020V100
Conditions at: LTFJ (SABIHA GOKCEN , TR) observed 0420 UTC 17 June 2019
Temperature: 24.0°C (75°F)
Dewpoint: 23.0°C (73°F) [RH = 94%]
Pressure (altimeter): 29.82 inches Hg (1010.0 mb)
Winds: from the NE (50 degrees) at 8 MPH (7 knots; 3.6 m/s)
Visibility: 6 or more miles (10+ km)
Ceiling: 3000 feet AGL
Clouds: scattered clouds at 900 feet AGL
broken clouds at 3000 feet AGL
Weather: -SHRA  (light rain showers)

METAR text: LTFJ 170350Z 05007KT 020V080 9999 FEW011 BKN030 23/22 Q1010 NOSIG RMK RWY24 04005KT 010V070
Conditions at: LTFJ (SABIHA GOKCEN , TR) observed 0350 UTC 17 June 2019
Temperature: 23.0°C (73°F)
Dewpoint: 22.0°C (72°F) [RH = 94%]
Pressure (altimeter): 29.82 inches Hg (1010.0 mb)
Winds: from the NE (50 degrees) at 8 MPH (7 knots; 3.6 m/s)
Visibility: 6 or more miles (10+ km)
Ceiling: 3000 feet AGL
Clouds: few clouds at 1100 feet AGL
broken clouds at 3000 feet AGL
Weather: no significant weather observed at this time

METAR text: LTFJ 170320Z 06005KT 030V090 9999 SCT007 BKN030 23/22 Q1010 NOSIG RMK RWY24 05005KT
Conditions at: LTFJ (SABIHA GOKCEN , TR) observed 0320 UTC 17 June 2019
Temperature: 23.0°C (73°F)
Dewpoint: 22.0°C (72°F) [RH = 94%]
Pressure (altimeter): 29.82 inches Hg (1010.0 mb)
Winds: from the ENE (60 degrees) at 6 MPH (5 knots; 2.6 m/s)
Visibility: 6 or more miles (10+ km)
Ceiling: 3000 feet AGL
Clouds: scattered clouds at 700 feet AGL
broken clouds at 3000 feet AGL
Weather: no significant weather observed at this time

METAR text: LTFJ 170250Z 05005KT 9999 SCT008 BKN030 23/22 Q1010 NOSIG RMK RWY24 05005KT
Conditions at: LTFJ (SABIHA GOKCEN , TR) observed 0250 UTC 17 June 2019
Temperature: 23.0°C (73°F)
Dewpoint: 22.0°C (72°F) [RH = 94%]
Pressure (altimeter): 29.82 inches Hg (1010.0 mb)
Winds: from the NE (50 degrees) at 6 MPH (5 knots; 2.6 m/s)
Visibility: 6 or more miles (10+ km)
Ceiling: 3000 feet AGL
Clouds: scattered clouds at 800 feet AGL
broken clouds at 3000 feet AGL
Weather: no significant weather observed at this time

METAR text: LTFJ 170220Z 03006KT 9999 SCT008 BKN030 23/22 Q1009 NOSIG RMK RWY24 03004KT
Conditions at: LTFJ (SABIHA GOKCEN , TR) observed 0220 UTC 17 June 2019
Temperature: 23.0°C (73°F)
Dewpoint: 22.0°C (72°F) [RH = 94%]
Pressure (altimeter): 29.79 inches Hg (1009.0 mb)
Winds: from the NNE (30 degrees) at 7 MPH (6 knots; 3.1 m/s)
Visibility: 6 or more miles (10+ km)
Ceiling: 3000 feet AGL
Clouds: scattered clouds at 800 feet AGL
broken clouds at 3000 feet AGL
Weather: no significant weather observed at this time

METAR text: LTFJ 170150Z 04005KT 9999 SCT008 BKN030 BKN090 23/22 Q1009 NOSIG RMK RWY24 04003KT
Conditions at: LTFJ (SABIHA GOKCEN , TR) observed 0150 UTC 17 June 2019
Temperature: 23.0°C (73°F)
Dewpoint: 22.0°C (72°F) [RH = 94%]
Pressure (altimeter): 29.79 inches Hg (1009.0 mb)
Winds: from the NE (40 degrees) at 6 MPH (5 knots; 2.6 m/s)
Visibility: 6 or more miles (10+ km)
Ceiling: 3000 feet AGL
Clouds: scattered clouds at 800 feet AGL
broken clouds at 3000 feet AGL
broken clouds at 9000 feet AGL
Weather: no significant weather observed at this time

METAR text: LTFJ 170120Z 04005KT 9999 SCT009 BKN030 BKN090 23/22 Q1009 NOSIG RMK RWY24 VRB02KT
Conditions at: LTFJ (SABIHA GOKCEN , TR) observed 0120 UTC 17 June 2019
Temperature: 23.0°C (73°F)
Dewpoint: 22.0°C (72°F) [RH = 94%]
Pressure (altimeter): 29.79 inches Hg (1009.0 mb)
Winds: from the NE (40 degrees) at 6 MPH (5 knots; 2.6 m/s)
Visibility: 6 or more miles (10+ km)
Ceiling: 3000 feet AGL
Clouds: scattered clouds at 900 feet AGL
broken clouds at 3000 feet AGL
broken clouds at 9000 feet AGL
Weather: no significant weather observed at this time

METAR text: LTFJ 170050Z 05005KT 9999 SCT013 BKN030 BKN100 23/22 Q1009 NOSIG RMK RWY24 01003KT
Conditions at: LTFJ (SABIHA GOKCEN , TR) observed 0050 UTC 17 June 2019
Temperature: 23.0°C (73°F)
Dewpoint: 22.0°C (72°F) [RH = 94%]
Pressure (altimeter): 29.79 inches Hg (1009.0 mb)
Winds: from the NE (50 degrees) at 6 MPH (5 knots; 2.6 m/s)
Visibility: 6 or more miles (10+ km)
Ceiling: 3000 feet AGL
Clouds: scattered clouds at 1300 feet AGL
broken clouds at 3000 feet AGL
broken clouds at 10000 feet AGL
Weather: no significant weather observed at this time

METAR text: LTFJ 170020Z 05005KT 9999 SCT009 BKN030 BKN100 23/22 Q1009 NOSIG RMK RWY24 04002KT
Conditions at: LTFJ (SABIHA GOKCEN , TR) observed 0020 UTC 17 June 2019
Temperature: 23.0°C (73°F)
Dewpoint: 22.0°C (72°F) [RH = 94%]
Pressure (altimeter): 29.79 inches Hg (1009.0 mb)
Winds: from the NE (50 degrees) at 6 MPH (5 knots; 2.6 m/s)
Visibility: 6 or more miles (10+ km)
Ceiling: 3000 feet AGL
Clouds: scattered clouds at 900 feet AGL
broken clouds at 3000 feet AGL
broken clouds at 10000 feet AGL
Weather: no significant weather observed at this time

METAR text: LTFJ 162350Z 05006KT 9999 SCT009 BKN030 BKN100 23/22 Q1009 NOSIG RMK RWY24 04004KT
Conditions at: LTFJ (SABIHA GOKCEN , TR) observed 2350 UTC 16 June 2019
Temperature: 23.0°C (73°F)
Dewpoint: 22.0°C (72°F) [RH = 94%]
Pressure (altimeter): 29.79 inches Hg (1009.0 mb)
Winds: from the NE (50 degrees) at 7 MPH (6 knots; 3.1 m/s)
Visibility: 6 or more miles (10+ km)
Ceiling: 3000 feet AGL
Clouds: scattered clouds at 900 feet AGL
broken clouds at 3000 feet AGL
broken clouds at 10000 feet AGL
Weather: no significant weather observed at this time

METAR text: LTFJ 162320Z 05006KT 9999 SCT006 SCT030 BKN100 23/22 Q1009 NOSIG RMK RWY24 03004KT
Conditions at: LTFJ (SABIHA GOKCEN , TR) observed 2320 UTC 16 June 2019
Temperature: 23.0°C (73°F)
Dewpoint: 22.0°C (72°F) [RH = 94%]
Pressure (altimeter): 29.79 inches Hg (1009.0 mb)
Winds: from the NE (50 degrees) at 7 MPH (6 knots; 3.1 m/s)
Visibility: 6 or more miles (10+ km)
Ceiling: 10000 feet AGL
Clouds: scattered clouds at 600 feet AGL
scattered clouds at 3000 feet AGL
broken clouds at 10000 feet AGL
Weather: no significant weather observed at this time

METAR text: LTFJ 162250Z 03005KT 9999 SCT009 SCT030 BKN100 23/22 Q1009 NOSIG RMK RWY24 03003KT 350V060
Conditions at: LTFJ (SABIHA GOKCEN , TR) observed 2250 UTC 16 June 2019
Temperature: 23.0°C (73°F)
Dewpoint: 22.0°C (72°F) [RH = 94%]
Pressure (altimeter): 29.79 inches Hg (1009.0 mb)
Winds: from the NNE (30 degrees) at 6 MPH (5 knots; 2.6 m/s)
Visibility: 6 or more miles (10+ km)
Ceiling: 10000 feet AGL
Clouds: scattered clouds at 900 feet AGL
scattered clouds at 3000 feet AGL
broken clouds at 10000 feet AGL
Weather: no significant weather observed at this time

METAR text: LTFJ 162220Z 03005KT 9999 SCT009 SCT030 BKN100 23/22 Q1009 NOSIG RMK RWY24 02003KT
Conditions at: LTFJ (SABIHA GOKCEN , TR) observed 2220 UTC 16 June 2019
Temperature: 23.0°C (73°F)
Dewpoint: 22.0°C (72°F) [RH = 94%]
Pressure (altimeter): 29.79 inches Hg (1009.0 mb)
Winds: from the NNE (30 degrees) at 6 MPH (5 knots; 2.6 m/s)
Visibility: 6 or more miles (10+ km)
Ceiling: 10000 feet AGL
Clouds: scattered clouds at 900 feet AGL
scattered clouds at 3000 feet AGL
broken clouds at 10000 feet AGL
Weather: no significant weather observed at this time

METAR text: LTFJ 162150Z 03005KT 350V060 9999 FEW035 SCT110 23/22 Q1010 NOSIG RMK RWY24 VRB02KT
Conditions at: LTFJ (SABIHA GOKCEN , TR) observed 2150 UTC 16 June 2019
Temperature: 23.0°C (73°F)
Dewpoint: 22.0°C (72°F) [RH = 94%]
Pressure (altimeter): 29.82 inches Hg (1010.0 mb)
Winds: from the NNE (30 degrees) at 6 MPH (5 knots; 2.6 m/s)
Visibility: 6 or more miles (10+ km)
Ceiling: at least 12,000 feet AGL
Clouds: few clouds at 3500 feet AGL
scattered clouds at 11000 feet AGL
Weather: no significant weather observed at this time

METAR text: LTFJ 162120Z 03007KT 9999 FEW009 SCT030 23/22 Q1009 NOSIG RMK RWY24 03003KT 360V070
Conditions at: LTFJ (SABIHA GOKCEN , TR) observed 2120 UTC 16 June 2019
Temperature: 23.0°C (73°F)
Dewpoint: 22.0°C (72°F) [RH = 94%]
Pressure (altimeter): 29.79 inches Hg (1009.0 mb)
Winds: from the NNE (30 degrees) at 8 MPH (7 knots; 3.6 m/s)
Visibility: 6 or more miles (10+ km)
Ceiling: at least 12,000 feet AGL
Clouds: few clouds at 900 feet AGL
scattered clouds at 3000 feet AGL
Weather: no significant weather observed at this time

METAR text: LTFJ 162050Z 03008KT 9999 SCT009 23/22 Q1010 NOSIG RMK RWY24 03004KT 350V050
Conditions at: LTFJ (SABIHA GOKCEN , TR) observed 2050 UTC 16 June 2019
Temperature: 23.0°C (73°F)
Dewpoint: 22.0°C (72°F) [RH = 94%]
Pressure (altimeter): 29.82 inches Hg (1010.0 mb)
Winds: from the NNE (30 degrees) at 9 MPH (8 knots; 4.1 m/s)
Visibility: 6 or more miles (10+ km)
Ceiling: at least 12,000 feet AGL
Clouds: scattered clouds at 900 feet AGL
Weather: no significant weather observed at this time

METAR text: LTFJ 162020Z 03007KT 9999 SCT009 24/22 Q1010 NOSIG RMK RWY24 03003KT 330V090
Conditions at: LTFJ (SABIHA GOKCEN , TR) observed 2020 UTC 16 June 2019
Temperature: 24.0°C (75°F)
Dewpoint: 22.0°C (72°F) [RH = 89%]
Pressure (altimeter): 29.82 inches Hg (1010.0 mb)
Winds: from the NNE (30 degrees) at 8 MPH (7 knots; 3.6 m/s)
Visibility: 6 or more miles (10+ km)
Ceiling: at least 12,000 feet AGL
Clouds: scattered clouds at 900 feet AGL
Weather: no significant weather observed at this time

METAR text: LTFJ 161950Z 03007KT 9999 SCT035 SCT180 23/21 Q1009 NOSIG RMK RWY24 03004KT 360V090
Conditions at: LTFJ (SABIHA GOKCEN , TR) observed 1950 UTC 16 June 2019
Temperature: 23.0°C (73°F)
Dewpoint: 21.0°C (70°F) [RH = 89%]
Pressure (altimeter): 29.79 inches Hg (1009.0 mb)
Winds: from the NNE (30 degrees) at 8 MPH (7 knots; 3.6 m/s)
Visibility: 6 or more miles (10+ km)
Ceiling: at least 12,000 feet AGL
Clouds: scattered clouds at 3500 feet AGL
scattered clouds at 18000 feet AGL
Weather: no significant weather observed at this time

METAR text: LTFJ 161920Z 04007KT 360V060 9999 SCT030 24/21 Q1010 NOSIG RMK RWY24 02004KT
Conditions at: LTFJ (SABIHA GOKCEN , TR) observed 1920 UTC 16 June 2019
Temperature: 24.0°C (75°F)
Dewpoint: 21.0°C (70°F) [RH = 83%]
Pressure (altimeter): 29.82 inches Hg (1010.0 mb)
Winds: from the NE (40 degrees) at 8 MPH (7 knots; 3.6 m/s)
Visibility: 6 or more miles (10+ km)
Ceiling: at least 12,000 feet AGL
Clouds: scattered clouds at 3000 feet AGL
Weather: no significant weather observed at this time

METAR text: LTFJ 161850Z 03007KT 350V060 9999 SCT030 24/21 Q1009 NOSIG RMK RWY24 01006KT
Conditions at: LTFJ (SABIHA GOKCEN , TR) observed 1850 UTC 16 June 2019
Temperature: 24.0°C (75°F)
Dewpoint: 21.0°C (70°F) [RH = 83%]
Pressure (altimeter): 29.79 inches Hg (1009.0 mb)
Winds: from the NNE (30 degrees) at 8 MPH (7 knots; 3.6 m/s)
Visibility: 6 or more miles (10+ km)
Ceiling: at least 12,000 feet AGL
Clouds: scattered clouds at 3000 feet AGL
Weather: no significant weather observed at this time

METAR text: LTFJ 161820Z 02010KT 9999 SCT030 24/21 Q1009 NOSIG RMK RWY24 01007KT
Conditions at: LTFJ (SABIHA GOKCEN , TR) observed 1820 UTC 16 June 2019
Temperature: 24.0°C (75°F)
Dewpoint: 21.0°C (70°F) [RH = 83%]
Pressure (altimeter): 29.79 inches Hg (1009.0 mb)
Winds: from the NNE (20 degrees) at 12 MPH (10 knots; 5.1 m/s)
Visibility: 6 or more miles (10+ km)
Ceiling: at least 12,000 feet AGL
Clouds: scattered clouds at 3000 feet AGL
Weather: no significant weather observed at this time

METAR text: LTFJ 161750Z 04009KT 9999 SCT030 24/21 Q1009 NOSIG RMK RWY24 02007KT 350V060
Conditions at: LTFJ (SABIHA GOKCEN , TR) observed 1750 UTC 16 June 2019
Temperature: 24.0°C (75°F)
Dewpoint: 21.0°C (70°F) [RH = 83%]
Pressure (altimeter): 29.79 inches Hg (1009.0 mb)
Winds: from the NE (40 degrees) at 10 MPH (9 knots; 4.6 m/s)
Visibility: 6 or more miles (10+ km)
Ceiling: at least 12,000 feet AGL
Clouds: scattered clouds at 3000 feet AGL
Weather: no significant weather observed at this time

METAR text: LTFJ 161720Z 03010KT 9999 FEW030TCU SCT035 25/20 Q1009 NOSIG RMK RWY24 02007KT
Conditions at: LTFJ (SABIHA GOKCEN , TR) observed 1720 UTC 16 June 2019
Temperature: 25.0°C (77°F)
Dewpoint: 20.0°C (68°F) [RH = 74%]
Pressure (altimeter): 29.79 inches Hg (1009.0 mb)
Winds: from the NNE (30 degrees) at 12 MPH (10 knots; 5.1 m/s)
Visibility: 6 or more miles (10+ km)
Ceiling: at least 12,000 feet AGL
Clouds: few clouds at 3000 feet AGL
scattered clouds at 3500 feet AGL
Weather: no significant weather observed at this time

METAR text: LTFJ 161650Z 04012KT 9999 FEW035TCU SCT035 25/20 Q1009 NOSIG RMK RWY24 03009KT 360V060
Conditions at: LTFJ (SABIHA GOKCEN , TR) observed 1650 UTC 16 June 2019
Temperature: 25.0°C (77°F)
Dewpoint: 20.0°C (68°F) [RH = 74%]
Pressure (altimeter): 29.79 inches Hg (1009.0 mb)
Winds: from the NE (40 degrees) at 14 MPH (12 knots; 6.2 m/s)
Visibility: 6 or more miles (10+ km)
Ceiling: at least 12,000 feet AGL
Clouds: few clouds at 3500 feet AGL
scattered clouds at 3500 feet AGL
Weather: no significant weather observed at this time

METAR text: LTFJ 161620Z 03014KT 9999 BKN028 26/19 Q1009 NOSIG RMK RWY24 02011KT
Conditions at: LTFJ (SABIHA GOKCEN , TR) observed 1620 UTC 16 June 2019
Temperature: 26.0°C (79°F)
Dewpoint: 19.0°C (66°F) [RH = 65%]
Pressure (altimeter): 29.79 inches Hg (1009.0 mb)
Winds: from the NNE (30 degrees) at 16 MPH (14 knots; 7.2 m/s)
Visibility: 6 or more miles (10+ km)
Ceiling: 2800 feet AGL
Clouds: broken clouds at 2800 feet AGL
Weather: no significant weather observed at this time

METAR text: LTFJ 161550Z 03013KT 360V060 9999 SCT026 26/20 Q1009 NOSIG RMK RWY24 01012KT
Conditions at: LTFJ (SABIHA GOKCEN , TR) observed 1550 UTC 16 June 2019
Temperature: 26.0°C (79°F)
Dewpoint: 20.0°C (68°F) [RH = 70%]
Pressure (altimeter): 29.79 inches Hg (1009.0 mb)
Winds: from the NNE (30 degrees) at 15 MPH (13 knots; 6.7 m/s)
Visibility: 6 or more miles (10+ km)
Ceiling: at least 12,000 feet AGL
Clouds: scattered clouds at 2600 feet AGL
Weather: no significant weather observed at this time

METAR text: LTFJ 161520Z 03014KT 9999 SCT026 26/19 Q1009 NOSIG RMK RWY24 02012KT
Conditions at: LTFJ (SABIHA GOKCEN , TR) observed 1520 UTC 16 June 2019
Temperature: 26.0°C (79°F)
Dewpoint: 19.0°C (66°F) [RH = 65%]
Pressure (altimeter): 29.79 inches Hg (1009.0 mb)
Winds: from the NNE (30 degrees) at 16 MPH (14 knots; 7.2 m/s)
Visibility: 6 or more miles (10+ km)
Ceiling: at least 12,000 feet AGL
Clouds: scattered clouds at 2600 feet AGL
Weather: no significant weather observed at this time

METAR text: LTFJ 161450Z 03014KT 360V060 9999 SCT025TCU 27/19 Q1009 NOSIG RMK RWY24 36013KT
Conditions at: LTFJ (SABIHA GOKCEN , TR) observed 1450 UTC 16 June 2019
Temperature: 27.0°C (81°F)
Dewpoint: 19.0°C (66°F) [RH = 62%]
Pressure (altimeter): 29.79 inches Hg (1009.0 mb)
Winds: from the NNE (30 degrees) at 16 MPH (14 knots; 7.2 m/s)
Visibility: 6 or more miles (10+ km)
Ceiling: at least 12,000 feet AGL
Clouds: scattered clouds at 2500 feet AGL
Weather: no significant weather observed at this time

METAR text: LTFJ 161420Z 03014KT 9999 SCT025TCU 27/20 Q1009 NOSIG RMK RWY24 36012KT
Conditions at: LTFJ (SABIHA GOKCEN , TR) observed 1420 UTC 16 June 2019
Temperature: 27.0°C (81°F)
Dewpoint: 20.0°C (68°F) [RH = 66%]
Pressure (altimeter): 29.79 inches Hg (1009.0 mb)
Winds: from the NNE (30 degrees) at 16 MPH (14 knots; 7.2 m/s)
Visibility: 6 or more miles (10+ km)
Ceiling: at least 12,000 feet AGL
Clouds: scattered clouds at 2500 feet AGL
Weather: no significant weather observed at this time

METAR text: LTFJ 161350Z 03016KT 9999 SCT035 27/20 Q1009 NOSIG RMK RWY24 01014KT
Conditions at: LTFJ (SABIHA GOKCEN , TR) observed 1350 UTC 16 June 2019
Temperature: 27.0°C (81°F)
Dewpoint: 20.0°C (68°F) [RH = 66%]
Pressure (altimeter): 29.79 inches Hg (1009.0 mb)
Winds: from the NNE (30 degrees) at 18 MPH (16 knots; 8.2 m/s)
Visibility: 6 or more miles (10+ km)
Ceiling: at least 12,000 feet AGL
Clouds: scattered clouds at 3500 feet AGL
Weather: no significant weather observed at this time

METAR text: LTFJ 161320Z 03014KT 340V060 9999 SCT035 29/20 Q1009 NOSIG RMK RWY24 01014KT
Conditions at: LTFJ (SABIHA GOKCEN , TR) observed 1320 UTC 16 June 2019
Temperature: 29.0°C (84°F)
Dewpoint: 20.0°C (68°F) [RH = 58%]
Pressure (altimeter): 29.79 inches Hg (1009.0 mb)
Winds: from the NNE (30 degrees) at 16 MPH (14 knots; 7.2 m/s)
Visibility: 6 or more miles (10+ km)
Ceiling: at least 12,000 feet AGL
Clouds: scattered clouds at 3500 feet AGL
Weather: no significant weather observed at this time

METAR text: LTFJ 161250Z 03015KT 9999 SCT035 28/19 Q1009 NOSIG RMK RWY24 01013KT 340V060
Conditions at: LTFJ (SABIHA GOKCEN , TR) observed 1250 UTC 16 June 2019
Temperature: 28.0°C (82°F)
Dewpoint: 19.0°C (66°F) [RH = 58%]
Pressure (altimeter): 29.79 inches Hg (1009.0 mb)
Winds: from the NNE (30 degrees) at 17 MPH (15 knots; 7.7 m/s)
Visibility: 6 or more miles (10+ km)
Ceiling: at least 12,000 feet AGL
Clouds: scattered clouds at 3500 feet AGL
Weather: no significant weather observed at this time

METAR text: LTFJ 161220Z 02015KT 9999 SCT040 28/19 Q1009 NOSIG RMK RWY24 36013KT
Conditions at: LTFJ (SABIHA GOKCEN , TR) observed 1220 UTC 16 June 2019
Temperature: 28.0°C (82°F)
Dewpoint: 19.0°C (66°F) [RH = 58%]
Pressure (altimeter): 29.79 inches Hg (1009.0 mb)
Winds: from the NNE (20 degrees) at 17 MPH (15 knots; 7.7 m/s)
Visibility: 6 or more miles (10+ km)
Ceiling: at least 12,000 feet AGL
Clouds: scattered clouds at 4000 feet AGL
Weather: no significant weather observed at this time

METAR text: LTFJ 161150Z 03014KT 360V060 9999 SCT030 29/20 Q1010 NOSIG RMK RWY24 36012KT 330V030
Conditions at: LTFJ (SABIHA GOKCEN , TR) observed 1150 UTC 16 June 2019
Temperature: 29.0°C (84°F)
Dewpoint: 20.0°C (68°F) [RH = 58%]
Pressure (altimeter): 29.82 inches Hg (1010.0 mb)
Winds: from the NNE (30 degrees) at 16 MPH (14 knots; 7.2 m/s)
Visibility: 6 or more miles (10+ km)
Ceiling: at least 12,000 feet AGL
Clouds: scattered clouds at 3000 feet AGL
Weather: no significant weather observed at this time

METAR text: LTFJ 161120Z 01013KT 330V040 9999 SCT030 29/20 Q1010 NOSIG RMK RWY24 01013KT
Conditions at: LTFJ (SABIHA GOKCEN , TR) observed 1120 UTC 16 June 2019
Temperature: 29.0°C (84°F)
Dewpoint: 20.0°C (68°F) [RH = 58%]
Pressure (altimeter): 29.82 inches Hg (1010.0 mb)
Winds: from the N (10 degrees) at 15 MPH (13 knots; 6.7 m/s)
Visibility: 6 or more miles (10+ km)
Ceiling: at least 12,000 feet AGL
Clouds: scattered clouds at 3000 feet AGL
Weather: no significant weather observed at this time

METAR text: LTFJ 161050Z 01011KT 340V050 9999 SCT030 29/20 Q1010 NOSIG RMK RWY24 36011KT 340V040
Conditions at: LTFJ (SABIHA GOKCEN , TR) observed 1050 UTC 16 June 2019
Temperature: 29.0°C (84°F)
Dewpoint: 20.0°C (68°F) [RH = 58%]
Pressure (altimeter): 29.82 inches Hg (1010.0 mb)
Winds: from the N (10 degrees) at 13 MPH (11 knots; 5.7 m/s)
Visibility: 6 or more miles (10+ km)
Ceiling: at least 12,000 feet AGL
Clouds: scattered clouds at 3000 feet AGL
Weather: no significant weather observed at this time

METAR text: LTFJ 161020Z 01012KT 330V050 9999 SCT030 28/19 Q1010 NOSIG RMK RWY24 01013KT
Conditions at: LTFJ (SABIHA GOKCEN , TR) observed 1020 UTC 16 June 2019
Temperature: 28.0°C (82°F)
Dewpoint: 19.0°C (66°F) [RH = 58%]
Pressure (altimeter): 29.82 inches Hg (1010.0 mb)
Winds: from the N (10 degrees) at 14 MPH (12 knots; 6.2 m/s)
Visibility: 6 or more miles (10+ km)
Ceiling: at least 12,000 feet AGL
Clouds: scattered clouds at 3000 feet AGL
Weather: no significant weather observed at this time

METAR text: LTFJ 160950Z 02011KT 330V050 9999 SCT030 28/19 Q1010 NOSIG RMK RWY24 01011KT
Conditions at: LTFJ (SABIHA GOKCEN , TR) observed 0950 UTC 16 June 2019
Temperature: 28.0°C (82°F)
Dewpoint: 19.0°C (66°F) [RH = 58%]
Pressure (altimeter): 29.82 inches Hg (1010.0 mb)
Winds: from the NNE (20 degrees) at 13 MPH (11 knots; 5.7 m/s)
Visibility: 6 or more miles (10+ km)
Ceiling: at least 12,000 feet AGL
Clouds: scattered clouds at 3000 feet AGL
Weather: no significant weather observed at this time

METAR text: LTFJ 160920Z 03011KT 340V060 9999 SCT030 28/19 Q1010 NOSIG RMK RWY24 01009KT 340V070
Conditions at: LTFJ (SABIHA GOKCEN , TR) observed 0920 UTC 16 June 2019
Temperature: 28.0°C (82°F)
Dewpoint: 19.0°C (66°F) [RH = 58%]
Pressure (altimeter): 29.82 inches Hg (1010.0 mb)
Winds: from the NNE (30 degrees) at 13 MPH (11 knots; 5.7 m/s)
Visibility: 6 or more miles (10+ km)
Ceiling: at least 12,000 feet AGL
Clouds: scattered clouds at 3000 feet AGL
Weather: no significant weather observed at this time

METAR text: LTFJ 160850Z 03009KT 360V060 9999 SCT026 27/19 Q1010 NOSIG RMK RWY24 36009KT 330V040
Conditions at: LTFJ (SABIHA GOKCEN , TR) observed 0850 UTC 16 June 2019
Temperature: 27.0°C (81°F)
Dewpoint: 19.0°C (66°F) [RH = 62%]
Pressure (altimeter): 29.82 inches Hg (1010.0 mb)
Winds: from the NNE (30 degrees) at 10 MPH (9 knots; 4.6 m/s)
Visibility: 6 or more miles (10+ km)
Ceiling: at least 12,000 feet AGL
Clouds: scattered clouds at 2600 feet AGL
Weather: no significant weather observed at this time

Forecast for: LTFJ (SABIHA GOKCEN , TR)
Text: TAF LTFJ 171640Z 1718/1818 03010KT CAVOK
Forecast period: 1800 to 2000 UTC 17 June 2019
Forecast type: FROM: standard forecast or significant change
Winds: from the NNE (30 degrees) at 12 MPH (10 knots; 5.1 m/s)
Visibility: 6 or more miles 10+ km)
Ceiling: unknown
Clouds: missing
Weather: NSW  (no significant weather)
Text: BECMG 1720/1723 SCT010
Forecast period: 2000 UTC 17 June 2019 to 1800 UTC 18 June 2019
Forecast type: BECOMING: Conditions expected to become as follows by 2300 UTC 17 June 2019
Winds: from the NNE (30 degrees) at 12 MPH (10 knots; 5.1 m/s)
Visibility: 6 or more miles 10+ km)
Ceiling: at least 12,000 feet AGL
Clouds: scattered clouds at 1000 feet AGL
Weather: NSW  (no significant weather)
Text: PROB30
Forecast period: 2300 UTC 17 June 2019 to 0200 UTC 18 June 2019
Forecast type: TEMPORARY: The following changes expected for less than half the time period
Visibility: 1.55 miles (2.49 km)
Ceiling: 1000 feet AGL
Clouds: broken clouds at 1000 feet AGL
Weather: BR  (mist)
Text: TEMPO 1723/1802 2500 BR BKN010
Forecast period: 0300 to 0700 UTC 18 June 2019
Forecast type: TEMPORARY: The following changes expected for less than half the time period
Visibility: missing
Ceiling: 3000 feet AGL
Clouds: few clouds at 2500 feet AGL
broken clouds at 3000 feet AGL
Weather: -SHRA  (light rain showers)
Text: TEMPO 1803/1807 -SHRA FEW025TCU BKN030
Forecast period: 1200 to 1600 UTC 18 June 2019
Forecast type: TEMPORARY: The following changes expected for less than half the time period
Winds: from the NNE (30 degrees) at 17 MPH (15 knots; 7.7 m/s)
gusting to 29 MPH (25 knots; 12.9 m/s)
Visibility: missing
Ceiling: 3000 feet AGL
Clouds: broken clouds at 3000 feet AGL
Weather: no significant weather forecast for this period